Terminal Aerodrome Forecast
Issued by NWS

Home | Current Version | Previous Version | Text Only | Print | Product List | Glossary On
Versions: 1 2 3 4 5 6 7 8 9 10 11 12 13
000
FTUS44 KLIX 241735
TAFHUM
TAF
KHUM 241735Z 2418/2518 07010KT P6SM VCSH SCT027 SCT040
      TEMPO 2418/2422 VRB13G24KT 2SM TSRA BKN030CB
     FM242300 08007KT P6SM SCT040 BKN100
     FM250100 03002KT P6SM SCT050 SCT100
      TEMPO 2509/2513 3SM BR
     FM251400 06008KT P6SM BKN060=

USA.gov is the U.S. government's official web portal to all federal, state and local government web resources and services.